createdAt,value
2022-12-07T00:01:37.135Z,24.27
2022-12-07T00:04:06.131Z,23.63
2022-12-07T00:06:42.177Z,24.77
2022-12-07T00:09:15.849Z,26.40
2022-12-07T00:11:43.705Z,25.70
2022-12-07T00:14:16.148Z,24.10
2022-12-07T00:16:45.251Z,24.63
2022-12-07T00:19:14.511Z,21.60
2022-12-07T00:21:42.283Z,25.87
2022-12-07T00:24:11.925Z,31.37
2022-12-07T00:26:41.722Z,25.57
2022-12-07T00:29:18.535Z,29.33
2022-12-07T00:31:46.444Z,25.77
2022-12-07T00:34:18.056Z,26.43
2022-12-07T00:36:45.701Z,29.00
2022-12-07T00:39:13.782Z,35.07
2022-12-07T00:41:42.187Z,29.97
2022-12-07T00:44:10.425Z,25.83
2022-12-07T00:46:38.292Z,26.20
2022-12-07T00:49:06.325Z,23.10
2022-12-07T00:51:34.133Z,27.93
2022-12-07T00:54:02.215Z,23.77
2022-12-07T00:56:30.267Z,30.23
2022-12-07T00:59:00.603Z,32.67
2022-12-07T01:01:31.363Z,32.00
2022-12-07T01:04:00.180Z,33.50
2022-12-07T01:06:28.025Z,28.40
2022-12-07T01:08:56.396Z,32.10
2022-12-07T01:11:26.412Z,29.33
2022-12-07T01:13:55.541Z,30.07
2022-12-07T01:16:24.698Z,27.20
2022-12-07T01:18:55.070Z,29.73
2022-12-07T01:21:25.170Z,27.43
2022-12-07T01:23:53.147Z,26.37
2022-12-07T01:26:23.326Z,25.97
2022-12-07T01:28:51.532Z,22.10
2022-12-07T01:31:21.598Z,25.40
2022-12-07T01:33:52.992Z,20.90
2022-12-07T01:36:21.628Z,22.23
2022-12-07T01:38:52.788Z,17.77
2022-12-07T01:41:21.952Z,23.83
2022-12-07T01:44:17.580Z,21.73
2022-12-07T01:46:59.542Z,32.70
2022-12-07T01:49:41.675Z,20.77
2022-12-07T01:52:45.672Z,19.57
2022-12-07T01:55:15.960Z,21.27
2022-12-07T01:57:48.926Z,17.80
2022-12-07T02:00:17.948Z,17.77
2022-12-07T02:02:55.329Z,20.30
2022-12-07T02:05:25.398Z,19.87
2022-12-07T02:07:56.204Z,24.27
2022-12-07T02:10:26.739Z,17.93
2022-12-07T02:13:07.402Z,20.37
2022-12-07T02:16:12.010Z,19.10
2022-12-07T02:18:55.152Z,21.13
2022-12-07T02:21:30.513Z,23.53
2022-12-07T02:24:15.814Z,26.80
2022-12-07T02:26:58.309Z,20.13
2022-12-07T02:29:26.759Z,17.57
2022-12-07T02:32:20.999Z,17.90
2022-12-07T02:35:05.591Z,19.90
2022-12-07T02:37:54.261Z,15.07
2022-12-07T02:40:32.574Z,20.67
2022-12-07T02:43:07.805Z,19.77
2022-12-07T02:45:39.183Z,16.17
2022-12-07T02:48:08.410Z,22.57
2022-12-07T02:50:36.219Z,18.47
2022-12-07T02:53:03.787Z,16.80
2022-12-07T02:55:39.928Z,21.73
2022-12-07T02:58:26.268Z,20.00
2022-12-07T03:01:10.273Z,26.87
2022-12-07T03:03:41.172Z,25.67
2022-12-07T03:06:26.847Z,22.13
2022-12-07T03:09:22.035Z,26.27
2022-12-07T03:11:56.651Z,34.23
2022-12-07T03:14:35.043Z,32.50
2022-12-07T03:17:14.112Z,36.97
2022-12-07T03:19:44.085Z,39.80
2022-12-07T03:22:14.006Z,32.57
2022-12-07T03:24:54.987Z,44.33
2022-12-07T03:27:25.505Z,38.70
2022-12-07T03:30:03.224Z,39.17
2022-12-07T03:32:38.589Z,41.07
2022-12-07T03:35:19.643Z,41.27
2022-12-07T03:37:56.004Z,35.97
2022-12-07T03:40:34.200Z,36.77
2022-12-07T03:43:03.260Z,38.13
2022-12-07T03:45:40.676Z,32.90
2022-12-07T03:48:35.437Z,32.60
2022-12-07T03:51:34.777Z,33.07
2022-12-07T03:54:25.700Z,25.87
2022-12-07T03:56:54.073Z,31.63
2022-12-07T03:59:22.472Z,24.97
2022-12-07T04:01:56.349Z,29.40
2022-12-07T04:04:27.050Z,25.03
2022-12-07T04:06:55.190Z,25.87
2022-12-07T04:09:22.974Z,25.97
2022-12-07T04:11:50.868Z,22.07
2022-12-07T04:14:21.598Z,26.50
2022-12-07T04:16:57.680Z,23.77
2022-12-07T04:19:30.890Z,23.03
2022-12-07T04:21:59.740Z,22.07
2022-12-07T04:24:27.737Z,26.57
2022-12-07T04:26:55.724Z,19.13
2022-12-07T04:29:23.394Z,19.33
2022-12-07T04:31:51.585Z,18.63
2022-12-07T04:34:19.907Z,16.33
2022-12-07T04:36:48.731Z,18.83
2022-12-07T04:39:24.506Z,20.37
2022-12-07T04:41:52.429Z,17.40
2022-12-07T04:44:20.732Z,21.73
2022-12-07T04:46:48.468Z,17.43
2022-12-07T04:49:16.779Z,21.23
2022-12-07T04:51:45.641Z,23.53
2022-12-07T04:54:14.504Z,18.30
2022-12-07T04:56:42.493Z,18.83
2022-12-07T04:59:11.468Z,19.53
2022-12-07T05:01:39.456Z,17.37
2022-12-07T05:04:07.956Z,15.67
2022-12-07T05:06:35.916Z,19.73
2022-12-07T05:09:04.198Z,16.33
2022-12-07T05:11:41.456Z,14.63
2022-12-07T05:14:16.056Z,16.07
2022-12-07T05:16:45.141Z,15.77
2022-12-07T05:19:13.322Z,15.70
2022-12-07T05:21:41.625Z,14.43
2022-12-07T05:24:12.104Z,13.80
2022-12-07T05:26:40.083Z,23.10
2022-12-07T05:29:07.498Z,16.83
2022-12-07T05:31:35.422Z,16.27
2022-12-07T05:34:03.192Z,14.90
2022-12-07T05:36:33.011Z,12.73
2022-12-07T05:39:00.828Z,15.00
2022-12-07T05:41:47.147Z,12.60
2022-12-07T05:44:14.709Z,15.73
2022-12-07T05:46:42.350Z,14.20
2022-12-07T05:49:09.591Z,12.77
2022-12-07T05:51:37.476Z,14.73
2022-12-07T05:54:04.873Z,13.70
2022-12-07T05:56:32.433Z,13.10
2022-12-07T05:59:18.335Z,15.50
2022-12-07T06:01:46.039Z,14.37
2022-12-07T06:04:13.539Z,19.10
2022-12-07T06:06:41.177Z,16.97
2022-12-07T06:09:08.524Z,21.33
2022-12-07T06:11:54.480Z,21.73
2022-12-07T06:14:21.808Z,21.70
2022-12-07T06:16:49.828Z,23.53
2022-12-07T06:19:17.386Z,20.63
2022-12-07T06:21:44.973Z,25.47
2022-12-07T06:24:16.830Z,22.70
2022-12-07T06:26:44.675Z,23.57
2022-12-07T06:29:13.083Z,33.60
2022-12-07T06:31:41.555Z,28.20
2022-12-07T06:34:12.644Z,26.00
2022-12-07T06:36:40.411Z,25.50
2022-12-07T06:39:10.150Z,26.40
2022-12-07T06:41:39.056Z,25.20
2022-12-07T06:44:07.292Z,27.90
2022-12-07T06:46:36.400Z,26.43
2022-12-07T06:49:05.272Z,26.23
2022-12-07T06:51:34.090Z,35.37
2022-12-07T06:54:01.379Z,37.77
2022-12-07T06:56:29.875Z,39.10
2022-12-07T06:58:57.553Z,37.77
2022-12-07T07:01:25.488Z,35.07
2022-12-07T07:03:53.430Z,35.17
2022-12-07T07:06:21.083Z,32.90
2022-12-07T07:08:48.385Z,43.90
2022-12-07T07:11:15.980Z,35.43
2022-12-07T07:13:43.281Z,45.87
2022-12-07T07:16:11.756Z,47.10
2022-12-07T07:18:39.483Z,47.67
2022-12-07T07:21:07.492Z,38.27
2022-12-07T07:23:34.872Z,42.20
2022-12-07T07:26:02.933Z,46.00
2022-12-07T07:28:30.235Z,49.23
2022-12-07T07:30:57.849Z,42.33
2022-12-07T07:33:25.533Z,62.87
2022-12-07T07:35:53.090Z,55.20
2022-12-07T07:38:20.393Z,55.60
2022-12-07T07:40:48.195Z,48.87
2022-12-07T07:43:15.931Z,52.50
2022-12-07T07:45:43.991Z,42.83
2022-12-07T07:48:11.742Z,41.40
2022-12-07T07:50:39.374Z,72.67
2022-12-07T07:53:07.031Z,80.37
2022-12-07T07:55:35.169Z,50.50
2022-12-07T07:58:03.205Z,38.60
2022-12-07T08:00:30.740Z,34.60
2022-12-07T08:02:58.521Z,35.97
2022-12-07T08:05:26.505Z,37.17
2022-12-07T08:07:54.279Z,37.83
2022-12-07T08:10:22.318Z,40.90
2022-12-07T08:13:07.915Z,37.73
2022-12-07T08:15:39.215Z,37.47
2022-12-07T08:18:06.499Z,30.57
2022-12-07T08:20:36.366Z,28.23
2022-12-07T08:23:04.366Z,30.60
2022-12-07T08:25:33.129Z,32.00
2022-12-07T08:28:01.647Z,29.63
2022-12-07T08:30:30.779Z,30.90
2022-12-07T08:32:58.312Z,29.77
2022-12-07T08:35:27.219Z,28.70
2022-12-07T08:37:54.842Z,28.67
2022-12-07T08:40:22.311Z,25.83
2022-12-07T08:42:50.720Z,25.63
2022-12-07T08:45:24.962Z,26.70
2022-12-07T08:48:07.353Z,26.57
2022-12-07T08:50:36.927Z,24.23
2022-12-07T08:53:06.371Z,23.40
2022-12-07T08:55:35.728Z,29.50
2022-12-07T08:58:04.414Z,28.03
2022-12-07T09:00:32.439Z,25.83
2022-12-07T09:03:00.622Z,23.60
2022-12-07T09:05:28.692Z,27.20
2022-12-07T09:08:01.175Z,25.10
2022-12-07T09:10:30.420Z,26.40
2022-12-07T09:13:01.865Z,26.33
2022-12-07T09:15:30.872Z,23.50
2022-12-07T09:17:58.358Z,26.27
2022-12-07T09:20:28.124Z,23.37
2022-12-07T09:22:55.940Z,25.60
2022-12-07T09:25:23.548Z,20.07
2022-12-07T09:27:57.968Z,20.23
2022-12-07T09:30:27.479Z,21.83
2022-12-07T09:32:56.527Z,22.33
2022-12-07T09:35:25.721Z,19.07
2022-12-07T09:37:53.116Z,19.33
2022-12-07T09:40:23.319Z,18.53
2022-12-07T09:42:54.591Z,17.90
2022-12-07T09:45:30.330Z,17.33
2022-12-07T09:47:59.876Z,17.63
2022-12-07T09:50:29.596Z,19.43
2022-12-07T09:53:13.666Z,16.73
2022-12-07T09:55:42.840Z,21.60
2022-12-07T09:58:23.935Z,18.37
2022-12-07T10:01:22.622Z,19.33
2022-12-07T10:03:53.169Z,19.03
2022-12-07T10:06:21.535Z,18.70
2022-12-07T10:08:49.166Z,20.50
2022-12-07T10:11:17.347Z,21.63
2022-12-07T10:13:48.914Z,20.40
2022-12-07T10:16:27.270Z,20.33
2022-12-07T10:18:55.477Z,19.33
2022-12-07T10:21:27.910Z,19.53
2022-12-07T10:24:04.229Z,17.10
2022-12-07T10:26:35.558Z,20.23
2022-12-07T10:29:32.565Z,18.87
2022-12-07T10:32:15.245Z,18.33
2022-12-07T10:34:47.436Z,20.23
2022-12-07T10:37:21.064Z,18.63
2022-12-07T10:39:48.321Z,19.80
2022-12-07T10:42:25.266Z,16.97
2022-12-07T10:45:16.426Z,20.30
2022-12-07T10:48:15.711Z,19.53
2022-12-07T10:50:49.378Z,21.57
2022-12-07T10:53:41.686Z,19.57
2022-12-07T10:56:51.214Z,19.67
2022-12-07T10:59:50.664Z,20.00
2022-12-07T11:02:34.314Z,18.37
2022-12-07T11:05:05.565Z,20.87
2022-12-07T11:07:41.124Z,18.57
2022-12-07T11:10:26.085Z,19.40
2022-12-07T11:13:13.420Z,18.83
2022-12-07T11:16:17.226Z,20.53
2022-12-07T11:19:25.235Z,21.10
2022-12-07T11:22:01.050Z,19.33
2022-12-07T11:24:35.764Z,20.17
2022-12-07T11:27:03.707Z,18.70
2022-12-07T11:30:03.753Z,21.13
2022-12-07T11:32:32.176Z,23.63
2022-12-07T11:35:15.786Z,20.03
2022-12-07T11:37:44.368Z,20.63
2022-12-07T11:40:37.197Z,22.03
2022-12-07T11:43:19.443Z,26.60
2022-12-07T11:45:54.290Z,23.63
2022-12-07T11:48:39.528Z,23.27
2022-12-07T11:51:11.755Z,23.53
2022-12-07T11:53:45.618Z,23.93
2022-12-07T11:56:16.731Z,20.73
2022-12-07T11:58:44.697Z,23.17
2022-12-07T12:01:14.718Z,27.73
2022-12-07T12:04:05.605Z,23.20
2022-12-07T12:06:36.152Z,24.97
2022-12-07T12:09:40.107Z,21.63
2022-12-07T12:15:39.997Z,19.20
2022-12-07T12:18:35.285Z,21.03
2022-12-07T12:21:12.309Z,19.37
2022-12-07T12:23:42.595Z,27.67
2022-12-07T12:26:21.165Z,23.37
2022-12-07T12:29:21.486Z,18.87
2022-12-07T12:32:06.233Z,21.67
2022-12-07T12:34:59.482Z,21.73
2022-12-07T12:37:35.913Z,20.87
2022-12-07T12:40:16.166Z,19.80
2022-12-07T12:42:57.702Z,21.20
2022-12-07T12:45:29.689Z,24.43
2022-12-07T12:48:16.139Z,87.50
2022-12-07T12:50:43.446Z,22.57
2022-12-07T12:53:21.382Z,22.30
2022-12-07T12:56:12.122Z,21.87
2022-12-07T12:58:42.546Z,24.00
2022-12-07T13:01:28.726Z,23.80
2022-12-07T13:03:57.576Z,24.17
2022-12-07T13:06:27.796Z,22.17
2022-12-07T13:08:58.820Z,22.03
2022-12-07T13:11:28.967Z,23.47
2022-12-07T13:14:35.142Z,22.87
2022-12-07T13:17:02.586Z,24.47
2022-12-07T13:19:42.146Z,23.03
2022-12-07T13:22:32.299Z,28.83
2022-12-07T13:25:21.027Z,28.73
2022-12-07T13:28:01.996Z,25.90
2022-12-07T13:30:30.962Z,25.87
2022-12-07T13:33:00.482Z,25.07
2022-12-07T13:35:38.648Z,21.23
2022-12-07T13:38:18.049Z,26.23
2022-12-07T13:41:13.760Z,22.57
2022-12-07T13:43:51.916Z,24.93
2022-12-07T13:46:27.329Z,27.03
2022-12-07T13:48:56.721Z,26.23
2022-12-07T13:51:29.391Z,26.40
2022-12-07T13:54:01.856Z,28.17
2022-12-07T13:56:35.133Z,33.83
2022-12-07T13:59:03.665Z,31.40
2022-12-07T14:01:34.942Z,43.10
2022-12-07T14:04:20.124Z,29.00
2022-12-07T14:06:52.476Z,43.83
2022-12-07T14:09:25.591Z,36.80
2022-12-07T14:11:55.549Z,36.83
2022-12-07T14:14:34.574Z,31.47
2022-12-07T14:17:16.705Z,30.97
2022-12-07T14:19:57.818Z,30.33
2022-12-07T14:22:32.332Z,29.80
2022-12-07T14:25:21.810Z,31.43
2022-12-07T14:27:59.478Z,28.63
2022-12-07T14:30:31.764Z,31.80
2022-12-07T14:33:06.625Z,29.43
2022-12-07T14:35:34.114Z,42.07
2022-12-07T14:38:01.733Z,43.93
2022-12-07T14:40:31.024Z,46.60
2022-12-07T14:43:19.351Z,41.43
2022-12-07T14:45:48.693Z,45.07
2022-12-07T14:53:57.004Z,54.63
2022-12-07T14:56:28.998Z,47.30
2022-12-07T14:58:56.607Z,45.50
2022-12-07T15:01:24.037Z,39.90
2022-12-07T15:03:52.220Z,32.70
2022-12-07T15:06:20.288Z,31.53
2022-12-07T15:08:48.195Z,32.07
2022-12-07T15:11:17.227Z,35.27
2022-12-07T15:14:03.690Z,33.20
2022-12-07T15:16:52.457Z,34.17
2022-12-07T15:19:31.134Z,31.50
2022-12-07T15:21:59.428Z,26.83
2022-12-07T15:24:27.897Z,34.10
2022-12-07T15:26:55.499Z,26.03
2022-12-07T15:29:24.156Z,30.00
2022-12-07T15:31:57.399Z,24.13
2022-12-07T15:34:34.711Z,26.83
2022-12-07T15:37:03.725Z,24.97
2022-12-07T15:39:31.422Z,23.80
2022-12-07T15:41:59.799Z,21.20
2022-12-07T15:44:48.658Z,25.67
2022-12-07T15:47:16.102Z,25.00
2022-12-07T15:49:44.530Z,31.83
2022-12-07T15:52:11.899Z,32.90
2022-12-07T15:54:39.443Z,41.50
2022-12-07T15:57:06.789Z,37.13
2022-12-07T15:59:34.427Z,34.53
2022-12-07T16:02:01.852Z,43.63
2022-12-07T16:04:33.076Z,36.70
2022-12-07T16:07:00.425Z,38.60
2022-12-07T16:09:28.064Z,29.13
2022-12-07T16:11:55.867Z,30.17
2022-12-07T16:14:23.984Z,30.70
2022-12-07T16:16:51.546Z,33.77
2022-12-07T16:19:19.338Z,37.87
2022-12-07T16:21:46.691Z,34.77
2022-12-07T16:24:16.258Z,43.77
2022-12-07T16:26:49.582Z,34.37
2022-12-07T16:29:20.654Z,28.07
2022-12-07T16:31:49.371Z,28.57
2022-12-07T16:34:17.560Z,28.13
2022-12-07T16:39:34.356Z,31.27
2022-12-07T16:42:02.012Z,28.20
2022-12-07T16:44:30.169Z,38.50
2022-12-07T16:46:58.118Z,34.17
2022-12-07T16:49:26.245Z,39.43
2022-12-07T16:52:18.166Z,31.63
2022-12-07T16:54:42.617Z,31.70
2022-12-07T16:57:10.070Z,35.20
2022-12-07T16:59:37.677Z,32.33
2022-12-07T17:02:04.987Z,32.77
2022-12-07T17:04:34.358Z,30.47
2022-12-07T17:07:01.796Z,33.57
2022-12-07T17:09:30.109Z,38.07
2022-12-07T17:11:57.373Z,28.53
2022-12-07T17:14:43.366Z,26.30
2022-12-07T17:17:10.723Z,34.40
2022-12-07T17:19:38.449Z,38.73
2022-12-07T17:22:06.370Z,35.90
2022-12-07T17:24:33.923Z,35.07
2022-12-07T17:27:01.214Z,33.13
2022-12-07T17:29:28.716Z,37.77
2022-12-07T17:31:55.982Z,42.47
2022-12-07T17:34:23.565Z,30.23
2022-12-07T17:36:50.877Z,38.33
2022-12-07T17:39:19.645Z,32.27
2022-12-07T17:42:05.873Z,36.20
2022-12-07T17:44:33.572Z,33.60
2022-12-07T17:47:02.899Z,27.67
2022-12-07T17:49:30.749Z,30.77
2022-12-07T17:52:16.833Z,33.80
2022-12-07T17:54:44.684Z,31.27
2022-12-07T17:57:12.276Z,33.37
2022-12-07T17:59:39.934Z,27.17
2022-12-07T18:02:08.869Z,27.63
2022-12-07T18:04:37.836Z,32.63
2022-12-07T18:07:06.945Z,32.27
2022-12-07T18:09:35.151Z,28.27
2022-12-07T18:12:03.289Z,32.77
2022-12-07T18:14:31.091Z,23.97
2022-12-07T18:16:58.754Z,34.00
2022-12-07T18:19:26.478Z,26.00
2022-12-07T18:21:53.819Z,20.60
2022-12-07T18:24:21.361Z,19.97
2022-12-07T18:26:48.848Z,18.10
2022-12-07T18:29:18.119Z,18.87
2022-12-07T18:31:47.772Z,18.43
2022-12-07T18:34:18.263Z,19.10
2022-12-07T18:36:50.245Z,17.40
2022-12-07T18:39:19.364Z,17.57
2022-12-07T18:41:47.238Z,18.77
2022-12-07T18:44:16.773Z,18.17
2022-12-07T18:46:44.223Z,20.77
2022-12-07T18:49:15.072Z,22.73
2022-12-07T18:51:43.050Z,20.90
2022-12-07T18:54:11.097Z,18.20
2022-12-07T18:56:39.297Z,15.97
2022-12-07T18:59:26.083Z,16.40
2022-12-07T19:01:55.141Z,13.07
2022-12-07T19:04:23.640Z,15.50
2022-12-07T19:06:51.494Z,15.27
2022-12-07T19:09:19.745Z,15.07
2022-12-07T19:11:51.295Z,17.50
2022-12-07T19:14:25.964Z,18.90
2022-12-07T19:16:57.712Z,17.50
2022-12-07T19:19:37.316Z,19.63
2022-12-07T19:22:06.355Z,21.20
2022-12-07T19:24:35.564Z,13.07
2022-12-07T19:27:04.887Z,16.20
2022-12-07T19:29:33.216Z,16.13
2022-12-07T19:32:02.553Z,17.87
2022-12-07T19:34:30.789Z,16.80
2022-12-07T19:36:58.898Z,13.73
2022-12-07T19:39:27.185Z,17.70
2022-12-07T19:41:55.965Z,17.70
2022-12-07T19:44:26.579Z,18.17
2022-12-07T19:47:02.562Z,15.47
2022-12-07T19:49:34.313Z,20.43
2022-12-07T19:52:04.528Z,16.90
2022-12-07T19:54:33.160Z,20.47
2022-12-07T19:57:01.318Z,19.00
2022-12-07T19:59:30.285Z,20.87
2022-12-07T20:01:58.026Z,18.97
2022-12-07T20:04:32.238Z,20.53
2022-12-07T20:07:01.017Z,17.00
2022-12-07T20:09:29.538Z,18.53
2022-12-07T20:12:15.793Z,15.00
2022-12-07T20:14:44.013Z,16.23
2022-12-07T20:17:12.144Z,19.03
2022-12-07T20:19:40.567Z,18.30
2022-12-07T20:22:08.244Z,14.33
2022-12-07T20:24:36.862Z,16.83
2022-12-07T20:27:05.238Z,15.80
2022-12-07T20:29:33.342Z,20.50
2022-12-07T20:32:00.909Z,27.27
2022-12-07T20:34:29.227Z,17.27
2022-12-07T20:36:57.074Z,19.30
2022-12-07T20:39:25.513Z,12.40
2022-12-07T20:42:12.181Z,15.03
2022-12-07T20:44:40.233Z,13.93
2022-12-07T20:47:07.550Z,15.60
2022-12-07T20:49:35.408Z,21.60
2022-12-07T20:52:03.358Z,20.30
2022-12-07T20:54:31.292Z,19.93
2022-12-07T20:56:59.094Z,24.20
2022-12-07T20:59:26.856Z,14.87
2022-12-07T21:01:54.223Z,16.70
2022-12-07T21:04:22.512Z,18.27
2022-12-07T21:06:49.983Z,17.77
2022-12-07T21:09:17.874Z,17.23
2022-12-07T21:11:45.200Z,10.70
2022-12-07T21:14:13.049Z,14.73
2022-12-07T21:16:40.380Z,15.07
2022-12-07T21:19:07.970Z,12.57
2022-12-07T21:21:35.733Z,13.40
2022-12-07T21:24:05.054Z,13.00
2022-12-07T21:26:35.687Z,12.30
2022-12-07T21:29:06.466Z,12.77
2022-12-07T21:31:36.533Z,12.53
2022-12-07T21:34:05.059Z,11.77
2022-12-07T21:36:33.528Z,11.33
2022-12-07T21:39:01.828Z,11.17
2022-12-07T21:41:32.113Z,12.63
2022-12-07T21:44:00.328Z,11.83
2022-12-07T21:46:34.050Z,15.90
2022-12-07T21:49:05.694Z,10.60
2022-12-07T21:51:33.348Z,13.47
2022-12-07T21:54:02.358Z,12.80
2022-12-07T21:56:39.231Z,13.60
2022-12-07T21:59:12.914Z,16.43
2022-12-07T22:01:42.292Z,14.97
2022-12-07T22:04:14.605Z,14.13
2022-12-07T22:06:42.038Z,21.93
2022-12-07T22:09:10.203Z,15.23
2022-12-07T22:11:38.115Z,14.53
2022-12-07T22:14:25.472Z,12.33
2022-12-07T22:16:53.205Z,17.40
2022-12-07T22:19:21.165Z,17.63
2022-12-07T22:21:48.693Z,14.83
2022-12-07T22:24:16.564Z,15.80
2022-12-07T22:26:44.556Z,17.43
2022-12-07T22:29:12.439Z,13.17
2022-12-07T22:31:41.458Z,14.27
2022-12-07T22:34:15.723Z,10.80
2022-12-07T22:36:43.399Z,14.43
2022-12-07T22:39:11.597Z,16.97
2022-12-07T22:41:39.953Z,13.20
2022-12-07T22:44:08.670Z,13.83
2022-12-07T22:46:36.752Z,15.03
2022-12-07T22:49:05.600Z,10.30
2022-12-07T22:51:35.498Z,11.97
2022-12-07T22:54:05.832Z,10.93
2022-12-07T22:56:35.259Z,14.77
2022-12-07T22:59:03.715Z,17.43
2022-12-07T23:01:31.554Z,17.87
2022-12-07T23:03:59.696Z,14.47
2022-12-07T23:06:31.375Z,10.37
2022-12-07T23:09:01.115Z,14.03
2022-12-07T23:11:50.070Z,9.50
2022-12-07T23:14:24.199Z,11.17
2022-12-07T23:16:51.707Z,14.93
2022-12-07T23:19:19.426Z,11.37
2022-12-07T23:21:47.273Z,14.37
2022-12-07T23:24:15.513Z,13.37
2022-12-07T23:26:44.199Z,13.83
2022-12-07T23:29:17.184Z,13.83
2022-12-07T23:31:47.462Z,13.23
2022-12-07T23:34:15.357Z,17.43
2022-12-07T23:36:42.708Z,12.87
2022-12-07T23:39:11.782Z,16.17
2022-12-07T23:41:39.143Z,12.20
2022-12-07T23:44:06.792Z,12.27
2022-12-07T23:46:35.087Z,8.40
2022-12-07T23:49:05.137Z,8.77
2022-12-07T23:51:33.526Z,12.70
2022-12-07T23:54:02.154Z,10.47
2022-12-07T23:56:31.597Z,13.73
2022-12-07T23:58:59.993Z,19.03
